Time;durP1;ratioP1;P1;durP2;ratioP2;P2;SDS_P1;SDS_P2;PMS_P1;PMS_P2;Temp;Humidity;BMP_temperature;BMP_pressure;BME280_temperature;BME280_humidity;BME280_pressure;Samples;Min_cycle;Max_cycle;Signal;HPM_P1;HPM_P2
2023/03/07 00:01:32;;;;;;;25.08;19.13;;;;;;;;;;5036355;28;20341;-77
2023/03/07 00:03:57;;;;;;;24.23;19.90;;;;;;;;;;5036927;28;20021;-83
2023/03/07 00:06:23;;;;;;;13.55;11.23;;;;;;;;;;5024856;28;20105;-81
2023/03/07 00:08:52;;;;;;;13.02;11.45;;;;;;;;;;5034793;28;20099;-82
2023/03/07 00:11:17;;;;;;;13.70;10.32;;;;;;;;;;5035517;28;20025;-80
2023/03/07 00:13:43;;;;;;;13.63;9.85;;;;;;;;;;5034818;28;20078;-82
2023/03/07 00:16:15;;;;;;;20.92;15.32;;;;;;;;;;5023947;28;20407;-80
2023/03/07 00:18:41;;;;;;;17.30;14.15;;;;;;;;;;5036044;28;20108;-79
2023/03/07 00:21:07;;;;;;;14.93;12.45;;;;;;;;;;5033357;28;20131;-80
2023/03/07 00:23:33;;;;;;;15.23;10.70;;;;;;;;;;5034685;28;20091;-79
2023/03/07 00:26:00;;;;;;;17.60;11.25;;;;;;;;;;5032697;28;20399;-79
2023/03/07 00:28:25;;;;;;;17.17;11.35;;;;;;;;;;5031695;28;20025;-80
2023/03/07 00:30:51;;;;;;;12.43;9.32;;;;;;;;;;5031823;28;20029;-80
2023/03/07 00:33:16;;;;;;;17.33;11.68;;;;;;;;;;5036202;28;20348;-79
2023/03/07 00:35:41;;;;;;;15.38;9.90;;;;;;;;;;5037100;28;20031;-80
2023/03/07 00:38:07;;;;;;;10.02;7.68;;;;;;;;;;5035404;28;20094;-79
2023/03/07 00:40:32;;;;;;;16.50;11.27;;;;;;;;;;5037344;28;20372;-79
2023/03/07 00:42:57;;;;;;;12.30;8.13;;;;;;;;;;5024777;28;20084;-79
2023/03/07 00:45:22;;;;;;;12.57;8.55;;;;;;;;;;5025083;28;20064;-82
2023/03/07 00:47:48;;;;;;;17.60;11.18;;;;;;;;;;5023241;28;20037;-81
2023/03/07 00:50:13;;;;;;;12.23;7.70;;;;;;;;;;5027647;28;20052;-80
2023/03/07 00:52:38;;;;;;;10.00;6.53;;;;;;;;;;5039503;28;20036;-79
2023/03/07 00:55:04;;;;;;;11.38;8.02;;;;;;;;;;5040554;28;20030;-80
2023/03/07 00:57:29;;;;;;;13.40;7.80;;;;;;;;;;5038085;28;20028;-79
2023/03/07 00:59:54;;;;;;;13.52;8.90;;;;;;;;;;5029019;28;20032;-79
2023/03/07 01:02:20;;;;;;;10.20;7.97;;;;;;;;;;5038921;28;20064;-80
2023/03/07 01:04:45;;;;;;;13.10;9.63;;;;;;;;;;5038858;28;20777;-81
2023/03/07 01:07:10;;;;;;;16.13;8.82;;;;;;;;;;5038455;28;20051;-81
2023/03/07 01:09:35;;;;;;;22.67;13.38;;;;;;;;;;5030194;28;20037;-81
2023/03/07 01:12:01;;;;;;;18.77;12.13;;;;;;;;;;5035569;28;20422;-81
2023/03/07 01:14:27;;;;;;;19.08;12.30;;;;;;;;;;5037511;28;20115;-81
2023/03/07 01:16:52;;;;;;;10.32;8.30;;;;;;;;;;5032440;28;20029;-81
2023/03/07 01:19:17;;;;;;;29.38;16.90;;;;;;;;;;5037626;28;20021;-81
2023/03/07 01:21:43;;;;;;;18.05;13.27;;;;;;;;;;5039527;28;20099;-81
2023/03/07 01:24:11;;;;;;;11.02;9.07;;;;;;;;;;5038365;28;20036;-81
2023/03/07 01:26:36;;;;;;;9.63;6.90;;;;;;;;;;5036473;28;20033;-82
2023/03/07 01:29:03;;;;;;;9.02;7.05;;;;;;;;;;5039833;28;20021;-80
2023/03/07 01:31:29;;;;;;;13.68;10.55;;;;;;;;;;5029109;28;20493;-80
2023/03/07 01:33:54;;;;;;;13.82;9.38;;;;;;;;;;5038915;28;20083;-77
2023/03/07 01:36:24;;;;;;;12.85;6.75;;;;;;;;;;5027936;28;20025;-80
2023/03/07 01:38:52;;;;;;;8.70;6.72;;;;;;;;;;5039100;28;20039;-81
2023/03/07 01:41:17;;;;;;;6.60;5.65;;;;;;;;;;5027906;28;20043;-81
2023/03/07 01:43:43;;;;;;;8.73;6.20;;;;;;;;;;5035220;28;20029;-82
2023/03/07 01:46:17;;;;;;;11.02;8.93;;;;;;;;;;5026944;28;20106;-81
2023/03/07 01:48:56;;;;;;;11.57;7.10;;;;;;;;;;5040148;28;20030;-80
2023/03/07 01:51:22;;;;;;;8.68;6.50;;;;;;;;;;5037611;28;20036;-78
2023/03/07 01:53:49;;;;;;;12.02;7.88;;;;;;;;;;5037192;28;20442;-78
2023/03/07 01:56:14;;;;;;;11.10;8.25;;;;;;;;;;5038968;28;20063;-78
2023/03/07 01:58:40;;;;;;;20.83;11.63;;;;;;;;;;5032453;28;20480;-78
2023/03/07 02:01:06;;;;;;;21.08;13.73;;;;;;;;;;5029343;28;20021;-79
2023/03/07 02:03:43;;;;;;;18.95;13.43;;;;;;;;;;5038177;28;20056;-80
2023/03/07 02:06:08;;;;;;;15.77;11.23;;;;;;;;;;5026228;28;20375;-81
2023/03/07 02:08:34;;;;;;;15.68;9.57;;;;;;;;;;5038992;28;20056;-81
2023/03/07 02:11:00;;;;;;;22.98;16.48;;;;;;;;;;5026755;28;20383;-79
2023/03/07 02:13:25;;;;;;;22.50;16.08;;;;;;;;;;5024179;28;20017;-77
2023/03/07 02:15:51;;;;;;;21.25;15.07;;;;;;;;;;5023203;28;20148;-77
2023/03/07 02:18:18;;;;;;;12.30;8.38;;;;;;;;;;5032727;28;20076;-80
2023/03/07 02:20:46;;;;;;;13.88;8.30;;;;;;;;;;5035597;28;20029;-77
2023/03/07 02:23:30;;;;;;;14.52;9.70;;;;;;;;;;5037555;28;20025;-79
2023/03/07 02:26:00;;;;;;;17.33;10.52;;;;;;;;;;5027331;28;20033;-79
2023/03/07 02:28:27;;;;;;;17.92;11.68;;;;;;;;;;5035890;28;20032;-81
2023/03/07 02:31:00;;;;;;;17.88;11.15;;;;;;;;;;5038429;28;20021;-79
2023/03/07 02:33:26;;;;;;;18.10;10.40;;;;;;;;;;5036416;28;20017;-78
2023/03/07 02:35:53;;;;;;;13.85;9.27;;;;;;;;;;5028538;28;20098;-78
2023/03/07 02:38:19;;;;;;;15.00;9.45;;;;;;;;;;5035986;28;20029;-78
2023/03/07 02:40:45;;;;;;;19.05;10.35;;;;;;;;;;5029367;28;20352;-77
2023/03/07 02:43:10;;;;;;;19.60;12.45;;;;;;;;;;5031462;28;20108;-77
2023/03/07 02:45:36;;;;;;;15.20;8.85;;;;;;;;;;5028101;28;20115;-78
2023/03/07 02:48:01;;;;;;;18.05;9.77;;;;;;;;;;5034035;28;20356;-77
2023/03/07 02:50:26;;;;;;;24.00;15.50;;;;;;;;;;5035983;28;20033;-78
2023/03/07 02:52:51;;;;;;;27.52;19.40;;;;;;;;;;5037416;28;20044;-77
2023/03/07 02:55:17;;;;;;;25.60;19.40;;;;;;;;;;5027919;28;20089;-78
2023/03/07 02:57:42;;;;;;;20.48;13.65;;;;;;;;;;5033863;28;20139;-79
2023/03/07 03:00:10;;;;;;;23.88;13.95;;;;;;;;;;5035559;28;20020;-78
2023/03/07 03:02:35;;;;;;;17.15;12.75;;;;;;;;;;5037422;28;20116;-78
2023/03/07 03:05:00;;;;;;;16.63;10.32;;;;;;;;;;5034736;28;20159;-78
2023/03/07 03:07:26;;;;;;;16.83;11.80;;;;;;;;;;5036876;28;20037;-77
2023/03/07 03:09:51;;;;;;;22.00;10.98;;;;;;;;;;5037320;28;20033;-77
2023/03/07 03:12:16;;;;;;;20.10;11.10;;;;;;;;;;5032555;28;20108;-78
2023/03/07 03:14:42;;;;;;;21.80;14.10;;;;;;;;;;5031120;28;20093;-77
2023/03/07 03:17:07;;;;;;;22.38;14.00;;;;;;;;;;5028118;28;20116;-78
2023/03/07 03:19:32;;;;;;;32.13;20.65;;;;;;;;;;5034169;28;20092;-78
2023/03/07 03:21:58;;;;;;;31.33;19.73;;;;;;;;;;5037638;28;20037;-79
2023/03/07 03:24:23;;;;;;;23.70;14.38;;;;;;;;;;5035671;28;20041;-77
2023/03/07 03:26:48;;;;;;;34.90;23.63;;;;;;;;;;5035783;28;20400;-77
2023/03/07 03:29:13;;;;;;;31.48;22.42;;;;;;;;;;5037563;28;20090;-79
2023/03/07 03:31:39;;;;;;;50.88;34.65;;;;;;;;;;5039054;28;20021;-77
2023/03/07 03:34:04;;;;;;;49.20;33.00;;;;;;;;;;5036691;28;20144;-78
2023/03/07 03:36:29;;;;;;;47.17;30.58;;;;;;;;;;5023709;28;20134;-79
2023/03/07 03:38:56;;;;;;;34.67;24.17;;;;;;;;;;5032162;28;20025;-78
2023/03/07 03:41:22;;;;;;;30.63;21.90;;;;;;;;;;5029369;28;20084;-81
2023/03/07 03:43:47;;;;;;;33.92;23.17;;;;;;;;;;5033746;28;20504;-77
2023/03/07 03:46:12;;;;;;;31.92;21.88;;;;;;;;;;5031484;28;20057;-78
2023/03/07 03:48:38;;;;;;;26.55;17.48;;;;;;;;;;5027633;28;20456;-78
2023/03/07 03:51:07;;;;;;;39.28;22.77;;;;;;;;;;5035321;28;20026;-77
2023/03/07 03:53:34;;;;;;;43.33;25.25;;;;;;;;;;5036376;28;20056;-76
2023/03/07 03:56:00;;;;;;;30.35;17.73;;;;;;;;;;5033463;28;20503;-77
2023/03/07 03:58:25;;;;;;;36.08;23.17;;;;;;;;;;5036239;28;20351;-76
2023/03/07 04:00:51;;;;;;;30.42;19.85;;;;;;;;;;5027699;28;20037;-76
2023/03/07 04:03:16;;;;;;;20.67;13.95;;;;;;;;;;5030292;28;20503;-77
2023/03/07 04:05:41;;;;;;;14.20;8.85;;;;;;;;;;5033645;28;20032;-77
2023/03/07 04:08:07;;;;;;;62.97;40.92;;;;;;;;;;5036690;28;20333;-77
2023/03/07 04:10:32;;;;;;;54.90;38.80;;;;;;;;;;5028810;28;20036;-77
2023/03/07 04:12:57;;;;;;;32.65;21.52;;;;;;;;;;5030007;28;20033;-77
2023/03/07 04:15:23;;;;;;;30.00;22.52;;;;;;;;;;5026218;28;20075;-77
2023/03/07 04:17:48;;;;;;;23.25;17.77;;;;;;;;;;5023435;28;20036;-78
2023/03/07 04:20:16;;;;;;;25.70;16.42;;;;;;;;;;5023679;28;20421;-77
2023/03/07 04:22:41;;;;;;;30.00;17.48;;;;;;;;;;5023953;28;20025;-76
2023/03/07 04:25:07;;;;;;;26.13;17.73;;;;;;;;;;5027730;28;20033;-77
2023/03/07 04:27:34;;;;;;;36.70;24.08;;;;;;;;;;5025937;28;20054;-82
2023/03/07 04:29:59;;;;;;;26.90;18.15;;;;;;;;;;5025598;28;20032;-80
2023/03/07 04:32:24;;;;;;;29.02;15.68;;;;;;;;;;5026586;28;20111;-78
2023/03/07 04:34:50;;;;;;;30.25;17.80;;;;;;;;;;5033032;28;20030;-79
2023/03/07 04:37:15;;;;;;;36.20;22.92;;;;;;;;;;5023467;28;20036;-81
2023/03/07 04:39:40;;;;;;;22.00;14.52;;;;;;;;;;5027301;28;20431;-77
2023/03/07 04:42:06;;;;;;;41.67;31.13;;;;;;;;;;5025221;28;20515;-77
2023/03/07 04:44:31;;;;;;;41.75;29.33;;;;;;;;;;5025610;28;20052;-76
2023/03/07 04:46:56;;;;;;;45.83;32.25;;;;;;;;;;5027015;28;20076;-78
2023/03/07 04:49:21;;;;;;;61.22;39.50;;;;;;;;;;5026246;28;20025;-78
2023/03/07 04:51:47;;;;;;;25.65;18.73;;;;;;;;;;5027407;28;20344;-78
2023/03/07 04:54:12;;;;;;;109.80;80.03;;;;;;;;;;5026928;28;20071;-76
2023/03/07 04:56:37;;;;;;;54.75;36.78;;;;;;;;;;5025824;28;20025;-77
2023/03/07 04:59:03;;;;;;;42.45;30.90;;;;;;;;;;5026378;28;20029;-77
2023/03/07 05:01:28;;;;;;;63.50;48.35;;;;;;;;;;5022577;28;20064;-78
2023/03/07 05:03:53;;;;;;;64.75;51.30;;;;;;;;;;5024419;28;20029;-79
2023/03/07 05:06:19;;;;;;;34.88;28.23;;;;;;;;;;5038937;28;20029;-79
2023/03/07 05:08:44;;;;;;;23.02;17.60;;;;;;;;;;5038841;28;20504;-77
2023/03/07 05:11:09;;;;;;;14.15;10.80;;;;;;;;;;5039471;28;20021;-78
2023/03/07 05:13:35;;;;;;;31.88;22.13;;;;;;;;;;5039357;28;20040;-79
2023/03/07 05:16:00;;;;;;;26.77;18.40;;;;;;;;;;5029844;28;20033;-78
2023/03/07 05:18:26;;;;;;;28.70;16.90;;;;;;;;;;5037744;28;20111;-78
2023/03/07 05:20:51;;;;;;;25.85;15.38;;;;;;;;;;5036589;28;20040;-77
2023/03/07 05:23:17;;;;;;;64.45;40.25;;;;;;;;;;5028675;28;20052;-78
2023/03/07 05:25:42;;;;;;;89.18;56.60;;;;;;;;;;5036794;28;20056;-77
2023/03/07 05:28:08;;;;;;;94.93;66.18;;;;;;;;;;5037230;28;20033;-78
2023/03/07 05:30:33;;;;;;;34.15;26.13;;;;;;;;;;5038441;28;20115;-77
2023/03/07 05:32:58;;;;;;;30.13;24.02;;;;;;;;;;5038303;28;20029;-79
2023/03/07 05:35:24;;;;;;;22.58;18.05;;;;;;;;;;5034965;28;20077;-81
2023/03/07 05:37:49;;;;;;;55.60;42.17;;;;;;;;;;5038331;28;20029;-79
2023/03/07 05:40:15;;;;;;;32.33;25.75;;;;;;;;;;5039365;28;20094;-80
2023/03/07 05:42:40;;;;;;;90.68;66.07;;;;;;;;;;5036317;28;20455;-79
2023/03/07 05:45:06;;;;;;;87.40;63.08;;;;;;;;;;5038908;28;20029;-77
2023/03/07 05:47:31;;;;;;;92.53;70.82;;;;;;;;;;5027469;28;20057;-80
2023/03/07 05:49:57;;;;;;;80.60;56.70;;;;;;;;;;5022936;28;20022;-77
2023/03/07 05:52:22;;;;;;;62.70;45.33;;;;;;;;;;5023628;28;20037;-77
2023/03/07 05:54:47;;;;;;;111.20;87.57;;;;;;;;;;5025806;28;20033;-78
2023/03/07 05:57:13;;;;;;;65.03;46.10;;;;;;;;;;5025424;28;20056;-78
2023/03/07 05:59:38;;;;;;;55.05;39.10;;;;;;;;;;5024438;28;20356;-77
2023/03/07 06:02:03;;;;;;;72.03;55.63;;;;;;;;;;5025104;28;20090;-80
2023/03/07 06:04:29;;;;;;;49.85;38.10;;;;;;;;;;5025733;28;20113;-78
2023/03/07 06:06:54;;;;;;;49.17;38.47;;;;;;;;;;5036024;28;20532;-78
2023/03/07 06:09:22;;;;;;;34.28;27.52;;;;;;;;;;5036061;28;20348;-78
2023/03/07 06:11:47;;;;;;;71.30;56.00;;;;;;;;;;5037773;28;20090;-78
2023/03/07 06:14:12;;;;;;;63.42;48.95;;;;;;;;;;5036817;28;20028;-77
2023/03/07 06:16:38;;;;;;;36.92;29.20;;;;;;;;;;5031690;28;20329;-78
2023/03/07 06:19:03;;;;;;;66.70;54.08;;;;;;;;;;5023932;28;20025;-76
2023/03/07 06:21:30;;;;;;;52.83;42.25;;;;;;;;;;5024187;28;20456;-77
2023/03/07 06:23:55;;;;;;;65.63;51.53;;;;;;;;;;5024218;28;20535;-78
2023/03/07 06:26:21;;;;;;;70.80;58.05;;;;;;;;;;5024925;28;20124;-77
2023/03/07 06:28:46;;;;;;;53.75;40.28;;;;;;;;;;5021645;28;20037;-77
2023/03/07 06:31:12;;;;;;;61.15;46.28;;;;;;;;;;5024172;28;20065;-77
2023/03/07 06:33:38;;;;;;;47.67;35.25;;;;;;;;;;5036865;28;20086;-79
2023/03/07 06:36:04;;;;;;;22.02;15.07;;;;;;;;;;5035612;28;20029;-79
2023/03/07 06:38:29;;;;;;;31.65;20.90;;;;;;;;;;5024137;28;20032;-79
2023/03/07 06:40:55;;;;;;;49.85;34.72;;;;;;;;;;5029438;28;20094;-82
2023/03/07 06:43:20;;;;;;;37.92;26.35;;;;;;;;;;5034435;28;20109;-81
2023/03/07 06:45:46;;;;;;;38.17;26.70;;;;;;;;;;5036266;28;20465;-81
2023/03/07 06:48:11;;;;;;;43.47;32.10;;;;;;;;;;5035768;28;20110;-81
2023/03/07 06:50:37;;;;;;;46.30;34.40;;;;;;;;;;5035359;28;20109;-81
2023/03/07 06:53:02;;;;;;;37.50;28.70;;;;;;;;;;5037086;28;20033;-81
2023/03/07 06:55:27;;;;;;;29.20;22.65;;;;;;;;;;5036723;28;20099;-81
2023/03/07 06:57:53;;;;;;;31.90;23.27;;;;;;;;;;5039593;28;20343;-79
2023/03/07 07:00:18;;;;;;;42.72;28.83;;;;;;;;;;5035103;28;20085;-82
2023/03/07 07:02:43;;;;;;;27.45;19.35;;;;;;;;;;5037209;28;20028;-81
2023/03/07 07:05:09;;;;;;;23.40;17.73;;;;;;;;;;5037920;28;20094;-82
2023/03/07 07:07:34;;;;;;;24.63;15.27;;;;;;;;;;5038857;28;20037;-82
2023/03/07 07:10:00;;;;;;;27.63;19.33;;;;;;;;;;5035818;28;20029;-81
2023/03/07 07:12:25;;;;;;;27.67;20.15;;;;;;;;;;5039764;28;20025;-83
2023/03/07 07:14:50;;;;;;;34.35;22.27;;;;;;;;;;5038463;28;20428;-82
2023/03/07 07:17:16;;;;;;;30.13;23.92;;;;;;;;;;5032930;28;20059;-82
2023/03/07 07:19:41;;;;;;;31.17;20.88;;;;;;;;;;5037554;28;20040;-79
2023/03/07 07:22:10;;;;;;;37.20;27.48;;;;;;;;;;5037726;28;20036;-80
2023/03/07 07:24:36;;;;;;;26.35;19.85;;;;;;;;;;5035567;28;20033;-83
2023/03/07 07:27:02;;;;;;;25.05;16.45;;;;;;;;;;5037297;28;20334;-83
2023/03/07 07:29:27;;;;;;;34.88;25.15;;;;;;;;;;5037039;28;20457;-81
2023/03/07 07:31:52;;;;;;;11.52;8.98;;;;;;;;;;5038067;28;20099;-80
2023/03/07 07:34:17;;;;;;;23.58;15.95;;;;;;;;;;5037934;28;20033;-80
2023/03/07 07:36:43;;;;;;;11.32;8.60;;;;;;;;;;5037503;28;20029;-82
2023/03/07 07:39:09;;;;;;;54.72;31.52;;;;;;;;;;5036341;28;20021;-80
2023/03/07 07:41:34;;;;;;;25.23;16.15;;;;;;;;;;5037240;28;20104;-82
2023/03/07 07:44:00;;;;;;;14.18;10.40;;;;;;;;;;5036467;28;20101;-84
2023/03/07 07:46:27;;;;;;;6.72;5.18;;;;;;;;;;5035263;28;20067;-80
2023/03/07 07:48:53;;;;;;;8.85;6.10;;;;;;;;;;5036170;28;20040;-78
2023/03/07 07:51:18;;;;;;;17.20;9.07;;;;;;;;;;5037853;28;20379;-81
2023/03/07 07:53:43;;;;;;;15.38;9.82;;;;;;;;;;5036120;28;20021;-80
2023/03/07 07:56:09;;;;;;;28.65;15.70;;;;;;;;;;5034359;28;20083;-83
2023/03/07 07:58:34;;;;;;;31.88;16.10;;;;;;;;;;5033913;28;20415;-83
2023/03/07 08:00:59;;;;;;;10.55;6.82;;;;;;;;;;5035900;28;20037;-81
2023/03/07 08:03:25;;;;;;;47.28;26.17;;;;;;;;;;5034195;28;20022;-82
2023/03/07 08:05:51;;;;;;;38.60;21.60;;;;;;;;;;5035950;28;20029;-81
2023/03/07 08:08:19;;;;;;;31.67;18.52;;;;;;;;;;5027651;28;20040;-79
2023/03/07 08:10:45;;;;;;;31.02;17.23;;;;;;;;;;5031638;28;20025;-82
2023/03/07 08:13:11;;;;;;;43.25;25.25;;;;;;;;;;5028732;28;20029;-82
2023/03/07 08:15:36;;;;;;;35.05;20.95;;;;;;;;;;5028520;28;20332;-83
2023/03/07 08:18:02;;;;;;;16.27;10.38;;;;;;;;;;5035769;28;20056;-81
2023/03/07 08:20:27;;;;;;;47.75;25.67;;;;;;;;;;5037055;28;20029;-77
2023/03/07 08:22:52;;;;;;;47.00;25.85;;;;;;;;;;5035339;28;20145;-81
2023/03/07 08:25:20;;;;;;;46.28;24.77;;;;;;;;;;5033901;28;20155;-82
2023/03/07 08:27:45;;;;;;;11.75;8.73;;;;;;;;;;5034872;28;20026;-82
2023/03/07 08:30:12;;;;;;;43.40;27.55;;;;;;;;;;5035824;28;20349;-83
2023/03/07 08:32:37;;;;;;;33.92;21.80;;;;;;;;;;5035766;28;20026;-79
2023/03/07 08:35:02;;;;;;;22.73;15.82;;;;;;;;;;5035733;28;20451;-81
2023/03/07 08:37:28;;;;;;;8.10;6.65;;;;;;;;;;5037006;28;20040;-78
2023/03/07 08:39:53;;;;;;;9.75;6.97;;;;;;;;;;5038429;28;20025;-81
2023/03/07 08:42:19;;;;;;;27.35;17.95;;;;;;;;;;5037414;28;20064;-80
2023/03/07 08:44:44;;;;;;;16.73;11.02;;;;;;;;;;5036933;28;20029;-79
2023/03/07 08:47:11;;;;;;;14.32;9.80;;;;;;;;;;5036601;28;20529;-82
2023/03/07 08:49:36;;;;;;;12.85;8.70;;;;;;;;;;5035311;28;20352;-77
2023/03/07 08:52:02;;;;;;;17.05;10.20;;;;;;;;;;5036148;28;20026;-82
2023/03/07 08:54:27;;;;;;;33.15;19.92;;;;;;;;;;5032303;28;20040;-80
2023/03/07 08:56:53;;;;;;;19.65;15.98;;;;;;;;;;5033684;28;20437;-82
2023/03/07 08:59:18;;;;;;;10.07;6.25;;;;;;;;;;5033839;28;20420;-82
2023/03/07 09:01:43;;;;;;;18.05;14.10;;;;;;;;;;5035051;28;20036;-80
2023/03/07 09:04:09;;;;;;;17.08;10.45;;;;;;;;;;5035729;28;20028;-82
2023/03/07 09:06:34;;;;;;;44.63;29.70;;;;;;;;;;5034666;28;20025;-82
2023/03/07 09:08:59;;;;;;;38.47;28.27;;;;;;;;;;5036500;28;20466;-81
2023/03/07 09:11:25;;;;;;;35.97;27.70;;;;;;;;;;5037416;28;20033;-82
2023/03/07 09:13:50;;;;;;;29.55;23.20;;;;;;;;;;5038596;28;20128;-81
2023/03/07 09:16:16;;;;;;;46.55;36.05;;;;;;;;;;5037261;28;20106;-81
2023/03/07 09:18:41;;;;;;;20.65;17.20;;;;;;;;;;5039904;28;20170;-79
2023/03/07 09:21:06;;;;;;;18.27;16.30;;;;;;;;;;5039132;28;20352;-80
2023/03/07 09:23:32;;;;;;;19.58;17.27;;;;;;;;;;5038879;28;20040;-82
2023/03/07 09:25:58;;;;;;;17.33;15.18;;;;;;;;;;5040451;28;20032;-82
2023/03/07 09:28:23;;;;;;;18.95;16.88;;;;;;;;;;5038248;28;20075;-81
2023/03/07 09:30:48;;;;;;;9.63;7.35;;;;;;;;;;5038603;28;20480;-79
2023/03/07 09:33:14;;;;;;;22.90;19.13;;;;;;;;;;5038723;28;20029;-83
2023/03/07 09:35:39;;;;;;;14.90;13.07;;;;;;;;;;5039672;28;20064;-78
2023/03/07 09:38:04;;;;;;;14.73;12.10;;;;;;;;;;5038627;28;20028;-83
2023/03/07 09:40:30;;;;;;;20.90;17.45;;;;;;;;;;5038441;28;20348;-80
2023/03/07 09:43:07;;;;;;;11.43;8.40;;;;;;;;;;5040469;28;20930;-82
2023/03/07 09:45:42;;;;;;;14.95;11.43;;;;;;;;;;5038861;28;20131;-82
2023/03/07 09:48:26;;;;;;;15.32;12.13;;;;;;;;;;5038143;28;20037;-81
2023/03/07 09:51:10;;;;;;;15.75;11.85;;;;;;;;;;5039795;28;20368;-83
2023/03/07 09:53:36;;;;;;;15.88;10.10;;;;;;;;;;5036578;28;20022;-80
2023/03/07 09:56:03;;;;;;;10.90;8.38;;;;;;;;;;5071122;28;20078;-82
2023/03/07 09:58:28;;;;;;;9.73;7.40;;;;;;;;;;5039529;28;20326;-81
2023/03/07 10:00:55;;;;;;;8.50;7.43;;;;;;;;;;5037522;28;20102;-80
2023/03/07 10:03:39;;;;;;;15.55;12.63;;;;;;;;;;5039192;28;20024;-82
2023/03/07 10:06:12;;;;;;;11.70;7.88;;;;;;;;;;5037948;28;20029;-83
2023/03/07 10:08:37;;;;;;;24.65;18.83;;;;;;;;;;5037657;28;20368;-82
2023/03/07 10:11:22;;;;;;;8.02;7.22;;;;;;;;;;5037477;28;20037;-82
2023/03/07 10:13:56;;;;;;;7.53;6.75;;;;;;;;;;5039311;28;20025;-80
2023/03/07 10:16:40;;;;;;;29.77;19.55;;;;;;;;;;5039329;28;20025;-85
2023/03/07 10:19:09;;;;;;;14.18;10.63;;;;;;;;;;5039528;28;20017;-81
2023/03/07 10:21:41;;;;;;;10.70;9.60;;;;;;;;;;5037022;28;20104;-84
2023/03/07 10:24:14;;;;;;;21.75;18.55;;;;;;;;;;5038798;28;20039;-84
2023/03/07 10:26:49;;;;;;;16.60;14.05;;;;;;;;;;5036210;28;20112;-82
2023/03/07 10:29:18;;;;;;;7.68;6.25;;;;;;;;;;5039184;28;20047;-84
2023/03/07 10:31:47;;;;;;;8.43;4.50;;;;;;;;;;5037312;28;20365;-84
2023/03/07 10:34:31;;;;;;;11.57;9.27;;;;;;;;;;5037867;28;20467;-82
2023/03/07 10:37:02;;;;;;;9.32;8.15;;;;;;;;;;5037283;28;20068;-83
2023/03/07 10:39:38;;;;;;;11.52;9.40;;;;;;;;;;5038860;28;20021;-81
2023/03/07 10:42:03;;;;;;;5.70;5.05;;;;;;;;;;5036499;28;20045;-85
2023/03/07 10:44:31;;;;;;;9.02;7.75;;;;;;;;;;5038330;28;20029;-84
2023/03/07 10:46:57;;;;;;;8.00;5.88;;;;;;;;;;5036545;28;20388;-81
2023/03/07 10:49:26;;;;;;;12.70;10.15;;;;;;;;;;5036638;28;20055;-82
2023/03/07 10:51:59;;;;;;;15.98;11.05;;;;;;;;;;5036522;28;20531;-86
2023/03/07 10:54:28;;;;;;;7.90;7.10;;;;;;;;;;5037688;28;20055;-80
2023/03/07 10:57:14;;;;;;;9.10;8.20;;;;;;;;;;5036141;28;20060;-80
2023/03/07 10:59:46;;;;;;;83.50;63.25;;;;;;;;;;5036201;28;20029;-83
2023/03/07 11:02:25;;;;;;;35.38;25.17;;;;;;;;;;5036969;28;20036;-81
2023/03/07 11:04:51;;;;;;;41.88;32.45;;;;;;;;;;5037068;28;20038;-84
2023/03/07 11:07:35;;;;;;;57.75;35.75;;;;;;;;;;5035887;28;20098;-78
2023/03/07 11:10:01;;;;;;;36.90;25.88;;;;;;;;;;5038312;28;20035;-81
2023/03/07 11:12:28;;;;;;;22.42;16.50;;;;;;;;;;5036668;28;20029;-83
2023/03/07 11:14:53;;;;;;;41.30;24.38;;;;;;;;;;5037092;28;20131;-83
2023/03/07 11:17:19;;;;;;;30.67;21.48;;;;;;;;;;5038104;28;20068;-84
2023/03/07 11:19:44;;;;;;;22.80;14.13;;;;;;;;;;5039144;28;20756;-80
2023/03/07 11:22:18;;;;;;;10.52;7.40;;;;;;;;;;5036963;28;20040;-80
2023/03/07 11:25:05;;;;;;;14.95;10.45;;;;;;;;;;5036700;28;20028;-84
2023/03/07 11:27:32;;;;;;;26.40;16.77;;;;;;;;;;5038134;28;20036;-85
2023/03/07 11:30:06;;;;;;;28.00;17.77;;;;;;;;;;5036151;28;20029;-83
2023/03/07 11:32:33;;;;;;;18.30;12.45;;;;;;;;;;5035898;28;20024;-83
2023/03/07 11:35:01;;;;;;;18.30;12.05;;;;;;;;;;5037177;28;20112;-83
2023/03/07 11:37:31;;;;;;;15.93;9.40;;;;;;;;;;5035409;28;20027;-85
2023/03/07 11:40:16;;;;;;;11.18;6.95;;;;;;;;;;5033705;28;20360;-79
2023/03/07 11:42:49;;;;;;;21.67;13.23;;;;;;;;;;5034624;28;20078;-80
2023/03/07 11:45:20;;;;;;;17.73;12.38;;;;;;;;;;5037642;28;20052;-86
2023/03/07 11:47:59;;;;;;;17.33;11.38;;;;;;;;;;5035836;28;20048;-82
2023/03/07 11:50:29;;;;;;;12.07;7.55;;;;;;;;;;5035216;28;20036;-82
2023/03/07 11:53:13;;;;;;;13.35;8.45;;;;;;;;;;5036238;28;20388;-83
2023/03/07 11:55:56;;;;;;;7.05;5.63;;;;;;;;;;5034090;28;20029;-83
2023/03/07 11:58:40;;;;;;;8.55;6.85;;;;;;;;;;5035901;28;20025;-83
2023/03/07 12:01:24;;;;;;;11.73;7.47;;;;;;;;;;5036684;28;20035;-83
2023/03/07 12:03:55;;;;;;;10.02;5.85;;;;;;;;;;5035978;28;20033;-84
2023/03/07 12:06:50;;;;;;;8.75;6.07;;;;;;;;;;5036848;28;20063;-85
2023/03/07 12:09:26;;;;;;;12.27;5.55;;;;;;;;;;5033923;28;20486;-86
2023/03/07 12:11:57;;;;;;;12.07;9.55;;;;;;;;;;5033023;28;20029;-83
2023/03/07 12:14:25;;;;;;;15.57;8.10;;;;;;;;;;5034572;28;20037;-83
2023/03/07 12:17:09;;;;;;;15.98;8.48;;;;;;;;;;5034870;28;20116;-84
2023/03/07 12:19:42;;;;;;;11.82;8.15;;;;;;;;;;5033273;28;20042;-79
2023/03/07 12:22:19;;;;;;;7.13;6.10;;;;;;;;;;5033176;28;20036;-85
2023/03/07 12:25:03;;;;;;;8.55;6.07;;;;;;;;;;5035481;28;20108;-84
2023/03/07 12:27:34;;;;;;;17.65;8.57;;;;;;;;;;5030907;28;20456;-83
2023/03/07 12:30:05;;;;;;;10.65;8.25;;;;;;;;;;5029581;28;20034;-81
2023/03/07 12:32:32;;;;;;;14.80;8.43;;;;;;;;;;5031558;28;20068;-79
2023/03/07 12:35:02;;;;;;;13.88;10.68;;;;;;;;;;5032411;28;20135;-80
2023/03/07 12:37:31;;;;;;;11.73;7.30;;;;;;;;;;5032153;28;20464;-81
2023/03/07 12:39:59;;;;;;;25.90;17.73;;;;;;;;;;5035412;28;20067;-83
2023/03/07 12:42:27;;;;;;;13.45;9.50;;;;;;;;;;5034763;28;20075;-83
2023/03/07 12:44:57;;;;;;;13.07;9.95;;;;;;;;;;5033073;28;20458;-82
2023/03/07 12:47:49;;;;;;;11.77;9.73;;;;;;;;;;5041509;28;20037;-84
2023/03/07 12:50:33;;;;;;;14.63;9.43;;;;;;;;;;5039172;28;20045;-79
2023/03/07 12:53:15;;;;;;;13.40;11.30;;;;;;;;;;5043381;28;20044;-80
2023/03/07 12:55:53;;;;;;;10.07;6.38;;;;;;;;;;5042957;28;20420;-79
2023/03/07 12:58:37;;;;;;;6.85;5.53;;;;;;;;;;5045188;28;20033;-81
2023/03/07 13:01:06;;;;;;;13.32;10.05;;;;;;;;;;5041149;28;20060;-82
2023/03/07 13:03:36;;;;;;;15.52;13.15;;;;;;;;;;5037954;28;20025;-78
2023/03/07 13:06:02;;;;;;;11.40;10.20;;;;;;;;;;5037596;28;20082;-79
2023/03/07 13:08:27;;;;;;;17.80;10.45;;;;;;;;;;5036145;28;20036;-78
2023/03/07 13:10:52;;;;;;;16.35;12.38;;;;;;;;;;5036906;28;20072;-80
2023/03/07 13:13:41;;;;;;;10.68;8.75;;;;;;;;;;5038875;28;20164;-78
2023/03/07 13:16:06;;;;;;;10.43;7.95;;;;;;;;;;5036970;28;20054;-80
2023/03/07 13:18:32;;;;;;;9.75;7.40;;;;;;;;;;5037650;28;20400;-83
2023/03/07 13:21:11;;;;;;;14.27;6.88;;;;;;;;;;5035892;28;20521;-83
2023/03/07 13:23:36;;;;;;;16.92;9.95;;;;;;;;;;5038468;28;20470;-81
2023/03/07 13:26:03;;;;;;;8.05;5.40;;;;;;;;;;5038534;28;20037;-82
2023/03/07 13:28:34;;;;;;;7.90;5.20;;;;;;;;;;5036025;28;20444;-84
2023/03/07 13:31:10;;;;;;;5.07;4.13;;;;;;;;;;5036686;28;20504;-83
2023/03/07 13:33:36;;;;;;;8.15;6.03;;;;;;;;;;5040524;28;20711;-82
2023/03/07 13:36:01;;;;;;;9.43;6.18;;;;;;;;;;5036860;28;20493;-82
2023/03/07 13:38:32;;;;;;;7.68;5.65;;;;;;;;;;5040174;28;20033;-82
2023/03/07 13:41:08;;;;;;;28.50;16.83;;;;;;;;;;5038510;28;20102;-82
2023/03/07 13:43:53;;;;;;;10.63;6.95;;;;;;;;;;5037594;28;20025;-82
2023/03/07 13:46:21;;;;;;;7.05;5.20;;;;;;;;;;5037207;28;20049;-81
2023/03/07 13:48:47;;;;;;;13.85;7.75;;;;;;;;;;5036336;28;20033;-79
2023/03/07 13:51:12;;;;;;;9.60;6.15;;;;;;;;;;5038299;28;20075;-81
2023/03/07 13:53:47;;;;;;;9.20;8.00;;;;;;;;;;5038871;28;20102;-80
2023/03/07 13:56:15;;;;;;;30.20;20.10;;;;;;;;;;5034018;28;20028;-78
2023/03/07 13:58:50;;;;;;;29.98;18.92;;;;;;;;;;5027489;28;20048;-82
2023/03/07 14:01:20;;;;;;;12.98;8.90;;;;;;;;;;5039117;28;20025;-79
2023/03/07 14:03:53;;;;;;;14.77;9.25;;;;;;;;;;5036962;28;20025;-82
2023/03/07 14:06:26;;;;;;;20.65;13.98;;;;;;;;;;5031366;28;20021;-83
2023/03/07 14:08:53;;;;;;;6.57;4.25;;;;;;;;;;5037843;28;20040;-80
2023/03/07 14:11:23;;;;;;;7.28;5.90;;;;;;;;;;5039374;28;20480;-83
2023/03/07 14:13:59;;;;;;;5.07;4.38;;;;;;;;;;5040436;28;20144;-80
2023/03/07 14:16:25;;;;;;;10.70;9.60;;;;;;;;;;5038342;28;20516;-78
2023/03/07 14:19:03;;;;;;;5.25;3.95;;;;;;;;;;5037692;28;20110;-78
2023/03/07 14:21:37;;;;;;;4.85;3.90;;;;;;;;;;5029402;28;23089;-81
2023/03/07 14:24:15;;;;;;;7.90;5.97;;;;;;;;;;5020102;28;20049;-76
2023/03/07 14:26:45;;;;;;;14.73;10.85;;;;;;;;;;5022878;28;20336;-77
2023/03/07 14:29:14;;;;;;;15.70;11.25;;;;;;;;;;5025029;28;20043;-77